SBPV/PVH METAR and TAF weather

Enter ICAO airport designator
Station Type Date Time Source
SBPV METAR 2019/08/20 10:00 UTC NOAA

SBPV 201000Z 12002KT 8000 NSC 23/22 Q1014


Station Type Date Time Source
SBPV Decoded METAR 2019/08/20 10:00 UTC NOAA

Porto Velho Aeroporto , Brazil (SBPV) 08-46S 063-55W 102M
Aug 20, 2019 - 06:00 AM EDT / 2019.08.20 1000 UTC
Wind: from the ESE (120 degrees) at 2 MPH (2 KT):0
Visibility: 4 mile(s):0
Temperature: 73 F (23 C)
Dew Point: 71 F (22 C)
Relative Humidity: 94%
Pressure (altimeter): 29.94 in. Hg (1014 hPa)
ob: SBPV 201000Z 12002KT 8000 NSC 23/22 Q1014
cycle: 10

Station Type Date Time Source
SBPV TAF 2019/08/20 12:50 UTC NOAA

TAF SBPV 200937Z 2012/2112 13007KT 7000 SCT030 TX34/2018Z TN22/2110Z
TEMPO 2018/2023 TSRA SCT030 FEW035CB
BECMG 2100/2102 00000KT NSC
BECMG 2110/2112 17003KT
RMK PHQ

Example: see airport list